createdAt,value
2023-02-07T00:19:34.567Z,2.13
2023-02-07T00:42:45.644Z,1.40
2023-02-07T00:45:35.482Z,1.33
2023-02-07T00:48:06.556Z,1.48
2023-02-07T01:03:57.999Z,1.40
2023-02-07T02:32:28.092Z,1.50
2023-02-07T02:35:53.226Z,1.40
2023-02-07T02:43:03.242Z,1.88
2023-02-07T02:53:32.988Z,2.35
2023-02-07T02:56:35.045Z,2.08
2023-02-07T02:59:49.677Z,2.20
2023-02-07T03:58:43.354Z,3.42
2023-02-07T04:15:18.490Z,2.35
2023-02-07T04:49:34.650Z,2.58
2023-02-07T04:50:24.675Z,2.65
2023-02-07T04:55:41.171Z,7.45
2023-02-07T05:35:28.366Z,2.65
2023-02-07T06:33:54.509Z,2.40
2023-02-07T06:48:56.571Z,3.45
2023-02-07T06:58:31.776Z,2.92
2023-02-07T07:05:32.562Z,2.53
2023-02-07T07:09:00.659Z,2.88
2023-02-07T07:11:43.103Z,2.47
2023-02-07T07:14:13.533Z,3.00
2023-02-07T07:16:41.052Z,3.05
2023-02-07T07:28:16.785Z,2.67
2023-02-07T07:41:41.760Z,3.90
2023-02-07T07:48:09.820Z,3.42
2023-02-07T07:50:36.718Z,3.28
2023-02-07T07:53:03.603Z,2.65
2023-02-07T07:55:30.510Z,3.03
2023-02-07T07:57:57.382Z,3.00
2023-02-07T08:00:24.443Z,3.38
2023-02-07T08:02:51.550Z,3.08
2023-02-07T08:05:18.513Z,3.13
2023-02-07T08:39:26.087Z,2.92
2023-02-07T08:42:48.693Z,4.03
2023-02-07T09:17:23.388Z,3.38
2023-02-07T09:20:49.662Z,2.40
2023-02-07T09:26:03.855Z,3.40
2023-02-07T10:00:59.173Z,3.47
2023-02-07T10:52:15.039Z,4.00
2023-02-07T10:55:18.120Z,4.57
2023-02-07T10:58:22.408Z,5.28
2023-02-07T11:01:22.403Z,4.15
2023-02-07T11:04:44.653Z,5.00
2023-02-07T11:19:27.814Z,4.82
2023-02-07T11:22:54.344Z,5.68
2023-02-07T11:26:12.570Z,3.50
2023-02-07T11:38:07.003Z,5.22
2023-02-07T11:52:14.332Z,5.28
2023-02-07T12:15:50.970Z,5.25
2023-02-07T12:22:19.957Z,4.57
2023-02-07T12:29:17.941Z,5.45
2023-02-07T12:32:24.548Z,4.95
2023-02-07T12:35:48.491Z,5.65
2023-02-07T12:38:31.301Z,6.07
2023-02-07T12:41:20.327Z,4.93
2023-02-07T12:44:41.880Z,6.13
2023-02-07T12:48:09.716Z,4.85
2023-02-07T12:51:02.678Z,4.43
2023-02-07T12:53:48.767Z,4.75
2023-02-07T12:56:53.498Z,5.22
2023-02-07T13:00:03.136Z,3.90
2023-02-07T13:03:05.994Z,7.18
2023-02-07T13:06:02.642Z,4.32
2023-02-07T13:09:00.788Z,4.93
2023-02-07T13:11:48.929Z,4.57
2023-02-07T13:15:17.947Z,6.63
2023-02-07T13:18:10.378Z,3.90
2023-02-07T13:21:33.363Z,5.50
2023-02-07T13:24:24.387Z,3.78
2023-02-07T13:27:48.089Z,4.68
2023-02-07T13:30:38.965Z,5.00
2023-02-07T13:33:52.202Z,5.50
2023-02-07T13:37:16.331Z,4.82
2023-02-07T13:40:15.398Z,5.68
2023-02-07T13:43:13.639Z,4.57
2023-02-07T13:46:33.352Z,4.78
2023-02-07T13:53:20.517Z,5.15
2023-02-07T13:56:32.297Z,5.15
2023-02-07T14:00:10.476Z,4.20
2023-02-07T14:03:29.942Z,4.75
2023-02-07T14:06:38.931Z,5.78
2023-02-07T14:09:57.649Z,4.97
2023-02-07T14:12:53.919Z,5.47
2023-02-07T14:15:45.803Z,5.35
2023-02-07T14:19:09.662Z,3.95
2023-02-07T14:21:45.127Z,3.25
2023-02-07T14:24:23.235Z,5.50
2023-02-07T14:27:04.864Z,4.15
2023-02-07T14:29:34.758Z,4.03
2023-02-07T14:32:27.269Z,4.80
2023-02-07T14:35:25.818Z,5.57
2023-02-07T14:38:06.797Z,6.20
2023-02-07T14:41:09.542Z,6.10
2023-02-07T14:44:08.036Z,5.22
2023-02-07T14:46:48.077Z,5.70
2023-02-07T14:49:36.060Z,5.05
2023-02-07T14:52:11.100Z,7.45
2023-02-07T14:54:43.042Z,4.55
2023-02-07T14:57:43.374Z,7.88
2023-02-07T15:00:13.397Z,5.43
2023-02-07T15:03:05.300Z,4.32
2023-02-07T15:05:38.525Z,6.43
2023-02-07T15:08:14.201Z,5.07
2023-02-07T15:10:52.754Z,5.15
2023-02-07T15:13:42.075Z,6.22
2023-02-07T15:16:23.174Z,6.05
2023-02-07T15:18:56.813Z,5.85
2023-02-07T15:21:37.670Z,4.60
2023-02-07T15:24:50.646Z,4.97
2023-02-07T15:27:26.345Z,4.60
2023-02-07T15:29:57.750Z,5.57
2023-02-07T15:32:33.622Z,5.28
2023-02-07T15:35:24.350Z,5.13
2023-02-07T15:37:53.283Z,6.43
2023-02-07T15:40:26.672Z,5.15
2023-02-07T15:42:59.216Z,5.35
2023-02-07T15:45:33.418Z,6.07
2023-02-07T15:48:14.523Z,4.72
2023-02-07T15:50:41.968Z,5.07
2023-02-07T15:53:21.417Z,4.70
2023-02-07T15:55:50.699Z,5.38
2023-02-07T15:58:31.908Z,4.45
2023-02-07T16:01:06.887Z,4.05
2023-02-07T16:03:42.659Z,4.97
2023-02-07T16:06:22.308Z,5.60
2023-02-07T16:08:57.018Z,5.57
2023-02-07T16:11:26.839Z,4.50
2023-02-07T16:14:16.653Z,5.07
2023-02-07T16:17:02.360Z,5.43
2023-02-07T16:19:32.584Z,5.00
2023-02-07T16:22:11.513Z,3.75
2023-02-07T16:24:42.746Z,5.35
2023-02-07T16:27:26.351Z,4.35
2023-02-07T16:29:55.355Z,6.65
2023-02-07T16:32:23.806Z,5.78
2023-02-07T16:34:59.560Z,4.65
2023-02-07T16:37:28.449Z,5.20
2023-02-07T16:39:55.519Z,6.10
2023-02-07T16:42:23.017Z,7.53
2023-02-07T16:44:49.861Z,5.32
2023-02-07T16:47:18.743Z,7.50
2023-02-07T16:49:46.440Z,6.35
2023-02-07T16:54:40.124Z,5.72
2023-02-07T16:57:07.279Z,7.43
2023-02-07T16:59:34.329Z,7.80
2023-02-07T17:02:01.222Z,6.80
2023-02-07T17:04:28.234Z,6.00
2023-02-07T17:06:55.390Z,6.43
2023-02-07T17:09:25.916Z,9.10
2023-02-07T17:11:54.383Z,6.03
2023-02-07T17:14:22.000Z,7.18
2023-02-07T17:19:23.201Z,4.38
2023-02-07T17:21:50.945Z,5.80
2023-02-07T17:24:19.015Z,8.77
2023-02-07T17:26:52.479Z,6.50
2023-02-07T17:29:20.589Z,6.47
2023-02-07T17:31:48.792Z,7.43
2023-02-07T17:34:15.921Z,5.88
2023-02-07T17:36:48.077Z,5.38
2023-02-07T17:39:18.583Z,4.85
2023-02-07T17:41:45.603Z,5.35
2023-02-07T17:44:12.386Z,5.32
2023-02-07T17:46:39.216Z,3.97
2023-02-07T17:49:14.009Z,4.88
2023-02-07T17:51:42.306Z,6.68
2023-02-07T17:54:09.595Z,5.95
2023-02-07T17:56:36.966Z,5.30
2023-02-07T17:59:07.420Z,5.55
2023-02-07T18:01:34.820Z,4.68
2023-02-07T18:04:05.166Z,5.13
2023-02-07T18:06:32.710Z,4.80
2023-02-07T18:09:00.161Z,5.90
2023-02-07T18:11:28.570Z,4.07
2023-02-07T18:14:13.188Z,5.88
2023-02-07T18:16:45.778Z,5.50
2023-02-07T18:20:34.656Z,5.82
2023-02-07T18:23:22.999Z,8.38
2023-02-07T18:32:39.745Z,12.60
2023-02-07T18:35:36.585Z,8.13
2023-02-07T18:38:43.078Z,11.25
2023-02-07T18:44:22.919Z,9.77
2023-02-07T18:47:01.509Z,9.55
2023-02-07T18:49:48.057Z,9.63
2023-02-07T18:52:46.948Z,8.63
2023-02-07T18:58:30.222Z,8.38
2023-02-07T19:01:35.167Z,8.90
2023-02-07T19:10:16.542Z,10.27
2023-02-07T19:12:43.408Z,9.65
2023-02-07T19:15:10.484Z,8.25
2023-02-07T19:17:37.603Z,8.23
2023-02-07T19:20:13.446Z,6.88
2023-02-07T19:23:02.768Z,5.95
2023-02-07T19:25:53.940Z,5.30
2023-02-07T19:32:03.665Z,4.82
2023-02-07T19:39:12.057Z,7.13
2023-02-07T19:45:48.618Z,4.78
2023-02-07T19:49:08.594Z,4.70
2023-02-07T19:53:09.014Z,4.03
2023-02-07T20:00:38.101Z,3.83
2023-02-07T20:10:25.835Z,4.45
2023-02-07T20:17:28.264Z,5.30
2023-02-07T20:20:17.925Z,3.88
2023-02-07T20:23:14.457Z,10.43
2023-02-07T20:26:45.043Z,11.40
2023-02-07T20:38:17.173Z,9.00
2023-02-07T20:45:06.316Z,8.30
2023-02-07T20:55:18.839Z,8.48
2023-02-07T20:57:45.738Z,8.43
2023-02-07T21:00:13.649Z,8.68
2023-02-07T21:03:31.804Z,10.95
2023-02-07T21:14:32.631Z,3.83
2023-02-07T21:17:06.515Z,3.17
2023-02-07T21:19:35.300Z,3.13
2023-02-07T21:22:02.348Z,2.97
2023-02-07T21:24:29.389Z,3.15
2023-02-07T21:26:57.093Z,5.18
2023-02-07T21:29:25.005Z,2.13
2023-02-07T21:31:52.322Z,2.53
2023-02-07T21:34:21.306Z,5.22
2023-02-07T21:36:49.587Z,4.63
2023-02-07T21:39:17.021Z,4.13
2023-02-07T21:41:46.290Z,2.92
2023-02-07T21:44:15.205Z,2.97
2023-02-07T21:47:04.146Z,4.13
2023-02-07T21:53:33.390Z,3.50
2023-02-07T22:11:16.628Z,2.80
2023-02-07T22:14:34.921Z,3.05
2023-02-07T22:33:54.581Z,2.75
2023-02-07T22:37:11.604Z,3.55
2023-02-07T23:15:17.576Z,3.40
2023-02-07T23:17:53.566Z,4.00
2023-02-07T23:20:40.111Z,2.45
2023-02-07T23:27:33.135Z,3.53
2023-02-07T23:38:01.981Z,3.50
2023-02-07T23:41:59.984Z,2.97
2023-02-07T23:58:59.570Z,3.85
